Time;durP1;ratioP1;P1;durP2;ratioP2;P2;SDS_P1;SDS_P2;PMS_P1;PMS_P2;Temp;Humidity;BMP_temperature;BMP_pressure;BME280_temperature;BME280_humidity;BME280_pressure;Samples;Min_cycle;Max_cycle;Signal;HPM_P1;HPM_P2
2022/07/12 00:00:28;;;;;;;5.57;4.50;;;;;;;19.10;57.33;97935.84;4964752;28;20183;-77
2022/07/12 00:02:54;;;;;;;4.95;4.45;;;;;;;19.08;57.43;97936.13;4930904;28;20215;-77
2022/07/12 00:05:19;;;;;;;5.28;4.72;;;;;;;19.13;57.22;97927.38;4934183;28;20292;-77
2022/07/12 00:07:44;;;;;;;5.05;4.63;;;;;;;19.14;57.41;97931.59;4949815;28;20192;-77
2022/07/12 00:10:10;;;;;;;5.07;4.57;;;;;;;19.09;57.50;97927.16;4950251;28;20571;-77
2022/07/12 00:12:35;;;;;;;5.13;4.60;;;;;;;19.07;57.56;97921.38;4949626;28;20254;-77
2022/07/12 00:15:00;;;;;;;5.05;4.55;;;;;;;19.08;57.53;97922.94;4949903;28;20274;-77
2022/07/12 00:17:26;;;;;;;6.78;5.03;;;;;;;19.04;57.60;97924.56;4953454;28;20685;-77
2022/07/12 00:19:51;;;;;;;5.30;4.72;;;;;;;19.02;57.37;97924.06;4933095;28;20176;-77
2022/07/12 00:22:17;;;;;;;6.15;4.43;;;;;;;19.01;57.28;97930.41;4966347;28;20657;-77
2022/07/12 00:24:42;;;;;;;4.97;4.47;;;;;;;19.00;57.24;97930.69;4949340;28;20213;-77
2022/07/12 00:27:07;;;;;;;5.55;4.85;;;;;;;19.01;57.31;97926.97;4965407;28;20283;-77
2022/07/12 00:29:33;;;;;;;4.88;4.32;;;;;;;18.98;57.33;97925.69;4949403;28;20698;-77
2022/07/12 00:31:58;;;;;;;6.03;4.85;;;;;;;18.96;57.13;97927.81;4965669;28;20173;-77
2022/07/12 00:34:23;;;;;;;5.80;5.20;;;;;;;18.88;57.79;97926.59;4949177;28;20211;-77
2022/07/12 00:36:49;;;;;;;5.18;4.70;;;;;;;18.89;58.02;97914.94;4949298;28;20207;-77
2022/07/12 00:39:14;;;;;;;5.32;4.47;;;;;;;18.88;57.72;97912.59;4949213;28;20265;-77
2022/07/12 00:41:42;;;;;;;5.25;4.75;;;;;;;18.79;58.01;97914.25;4965854;28;20445;-77
2022/07/12 00:44:08;;;;;;;5.45;4.80;;;;;;;18.77;58.26;97908.47;4959774;28;20697;-77
2022/07/12 00:46:34;;;;;;;7.15;5.10;;;;;;;18.74;58.48;97915.06;4949029;28;20416;-77
2022/07/12 00:48:59;;;;;;;4.78;4.28;;;;;;;18.78;57.98;97918.75;4926869;28;20181;-77
2022/07/12 00:51:25;;;;;;;7.05;5.45;;;;;;;18.78;58.40;97915.28;4933059;28;20165;-77
2022/07/12 00:53:51;;;;;;;6.05;4.53;;;;;;;18.75;58.38;97914.03;4948673;28;20615;-77
2022/07/12 00:56:16;;;;;;;5.53;5.03;;;;;;;18.73;58.62;97910.88;4948791;28;20194;-77
2022/07/12 00:58:43;;;;;;;5.88;5.22;;;;;;;18.60;58.77;97911.53;4930697;28;20408;-77
2022/07/12 01:01:09;;;;;;;6.15;5.43;;;;;;;18.60;58.72;97908.88;4963155;28;20431;-77
2022/07/12 01:03:35;;;;;;;5.50;4.88;;;;;;;18.55;58.76;97914.22;4929234;28;20266;-78
2022/07/12 01:06:00;;;;;;;5.82;5.10;;;;;;;18.46;58.91;97912.16;4946723;28;20282;-76
2022/07/12 01:08:26;;;;;;;6.80;5.05;;;;;;;18.40;58.98;97905.34;4956712;28;20570;-77
2022/07/12 01:10:52;;;;;;;5.70;5.10;;;;;;;18.38;59.03;97907.50;4946875;28;20266;-76
2022/07/12 01:13:18;;;;;;;5.30;4.75;;;;;;;18.29;59.45;97909.16;4946743;28;20247;-76
2022/07/12 01:15:43;;;;;;;5.57;4.97;;;;;;;18.28;59.38;97902.31;4946775;28;20712;-76
2022/07/12 01:18:09;;;;;;;5.53;5.03;;;;;;;18.24;59.45;97912.63;4946757;28;20268;-76
2022/07/12 01:20:34;;;;;;;5.45;4.90;;;;;;;18.18;59.76;97908.47;4946882;28;20173;-76
2022/07/12 01:23:00;;;;;;;6.18;5.57;;;;;;;18.18;60.03;97907.66;4963442;28;20246;-76
2022/07/12 01:25:26;;;;;;;5.78;5.07;;;;;;;18.20;59.86;97913.44;4962754;28;20250;-76
2022/07/12 01:27:52;;;;;;;6.30;5.10;;;;;;;18.21;59.56;97918.44;4945139;28;20219;-76
2022/07/12 01:30:18;;;;;;;5.85;5.00;;;;;;;18.26;59.16;97913.13;4930361;28;20254;-76
2022/07/12 01:32:43;;;;;;;5.20;4.70;;;;;;;18.28;59.26;97912.84;4913347;28;20274;-76
2022/07/12 01:35:09;;;;;;;4.65;4.20;;;;;;;18.30;59.37;97911.53;4946565;28;20187;-77
2022/07/12 01:37:37;;;;;;;4.22;3.70;;;;;;;18.27;59.35;97906.03;4962664;28;20169;-76
2022/07/12 01:40:04;;;;;;;5.35;3.70;;;;;;;18.28;59.43;97910.22;4917200;28;20189;-77
2022/07/12 01:42:30;;;;;;;6.20;4.88;;;;;;;18.31;59.89;97912.31;4946478;28;20569;-76
2022/07/12 01:44:56;;;;;;;4.07;3.65;;;;;;;18.21;59.79;97913.16;4924809;28;20346;-76
2022/07/12 01:47:25;;;;;;;6.07;4.32;;;;;;;18.20;59.82;97916.06;4962167;28;20772;-76
2022/07/12 01:49:50;;;;;;;5.53;4.40;;;;;;;18.21;59.63;97923.69;4912476;28;20271;-76
2022/07/12 01:52:15;;;;;;;4.13;3.70;;;;;;;18.22;60.13;97924.50;4945655;28;20071;-76
2022/07/12 01:54:42;;;;;;;5.07;4.20;;;;;;;18.20;60.48;97923.97;4947529;28;20153;-76
2022/07/12 01:57:07;;;;;;;5.40;4.35;;;;;;;18.17;60.31;97924.53;4945606;28;20203;-76
2022/07/12 01:59:33;;;;;;;5.35;4.53;;;;;;;18.15;60.42;97924.81;4929565;28;20192;-76
2022/07/12 02:01:59;;;;;;;4.78;4.22;;;;;;;18.11;60.35;97916.69;4946225;28;20665;-76
2022/07/12 02:04:24;;;;;;;4.68;4.18;;;;;;;18.18;59.85;97926.09;4955256;28;20145;-76
2022/07/12 02:06:50;;;;;;;4.80;3.85;;;;;;;18.18;59.63;97926.09;4946826;28;20252;-76
2022/07/12 02:09:16;;;;;;;4.63;3.80;;;;;;;18.15;59.58;97925.59;4948193;28;20289;-77
2022/07/12 02:11:42;;;;;;;4.55;3.50;;;;;;;18.15;59.65;97922.97;4961751;28;20289;-77
2022/07/12 02:14:09;;;;;;;4.03;3.63;;;;;;;18.08;59.80;97925.13;4946671;28;20349;-77
2022/07/12 02:16:34;;;;;;;5.55;3.70;;;;;;;18.01;59.41;97916.75;4947392;28;20195;-77
2022/07/12 02:19:00;;;;;;;5.45;3.70;;;;;;;17.93;59.92;97922.59;4945867;28;20219;-76
2022/07/12 02:21:26;;;;;;;4.95;3.67;;;;;;;17.93;59.78;97922.59;4963716;28;20187;-76
2022/07/12 02:23:51;;;;;;;5.10;3.97;;;;;;;17.93;60.22;97926.00;4946505;28;20387;-76
2022/07/12 02:26:17;;;;;;;3.85;3.38;;;;;;;17.94;59.76;97932.06;4963081;28;20194;-76
2022/07/12 02:28:42;;;;;;;4.22;3.63;;;;;;;17.92;60.15;97932.34;4947212;28;20294;-76
2022/07/12 02:31:08;;;;;;;4.57;3.13;;;;;;;17.98;60.08;97930.47;4946129;28;20134;-76
2022/07/12 02:33:34;;;;;;;4.25;3.75;;;;;;;18.02;60.57;97925.44;4963327;28;20310;-76
2022/07/12 02:36:00;;;;;;;4.07;3.65;;;;;;;18.05;60.33;97925.66;4947244;28;20611;-76
2022/07/12 02:38:25;;;;;;;5.63;3.60;;;;;;;17.99;59.81;97916.22;4958507;28;20029;-76
2022/07/12 02:40:54;;;;;;;4.03;3.63;;;;;;;17.97;60.06;97928.88;4963657;28;20249;-76
2022/07/12 02:43:19;;;;;;;3.83;3.42;;;;;;;17.80;60.35;97918.69;4962157;28;20168;-76
2022/07/12 02:45:45;;;;;;;4.57;4.15;;;;;;;17.72;60.13;97906.09;4965858;28;20337;-77
2022/07/12 02:48:12;;;;;;;4.97;3.78;;;;;;;17.60;60.44;97914.34;4944342;28;20153;-76
2022/07/12 02:50:41;;;;;;;4.70;3.35;;;;;;;17.46;60.06;97913.34;4911844;28;20208;-76
2022/07/12 02:53:07;;;;;;;5.38;3.72;;;;;;;17.48;59.97;97913.84;4928634;28;20373;-76
2022/07/12 02:55:34;;;;;;;4.20;3.70;;;;;;;17.44;60.16;97918.88;4961653;28;20192;-76
2022/07/12 02:58:00;;;;;;;8.75;3.90;;;;;;;17.39;60.37;97924.97;4944762;28;20615;-77
2022/07/12 03:00:27;;;;;;;5.30;3.60;;;;;;;17.38;60.18;97925.22;4963960;28;20180;-77
2022/07/12 03:02:52;;;;;;;4.45;3.45;;;;;;;17.38;61.45;97922.59;4946992;28;20649;-77
2022/07/12 03:05:18;;;;;;;6.10;4.00;;;;;;;17.42;61.23;97928.88;4963652;28;20188;-76
2022/07/12 03:07:44;;;;;;;5.30;3.83;;;;;;;17.46;61.01;97921.22;4960722;28;20251;-76
2022/07/12 03:10:10;;;;;;;4.75;4.30;;;;;;;17.45;61.31;97927.56;4961036;28;20712;-77
2022/07/12 03:12:36;;;;;;;6.18;5.18;;;;;;;17.40;61.54;97929.16;4945133;28;20605;-76
2022/07/12 03:15:03;;;;;;;5.93;4.13;;;;;;;17.36;61.73;97928.13;4944710;28;20204;-76
2022/07/12 03:17:29;;;;;;;5.25;4.00;;;;;;;17.35;62.20;97928.38;4928165;28;20115;-76
2022/07/12 03:19:54;;;;;;;5.18;4.60;;;;;;;17.31;61.59;97928.16;4929592;28;20637;-77
2022/07/12 03:22:20;;;;;;;4.97;3.88;;;;;;;17.31;61.79;97935.25;4946168;28;20318;-77
2022/07/12 03:24:45;;;;;;;5.32;4.25;;;;;;;17.31;61.64;97935.25;4947971;28;20165;-77
2022/07/12 03:27:11;;;;;;;4.30;3.83;;;;;;;17.30;61.25;97931.81;4948918;28;20196;-77
2022/07/12 03:29:37;;;;;;;4.13;3.72;;;;;;;17.31;61.21;97945.78;4961906;28;20207;-76
2022/07/12 03:32:03;;;;;;;4.50;3.60;;;;;;;17.28;61.18;97946.31;4910232;28;20216;-77
2022/07/12 03:34:28;;;;;;;4.07;3.60;;;;;;;17.31;61.32;97949.19;4928501;28;20168;-77
2022/07/12 03:36:54;;;;;;;5.85;3.42;;;;;;;17.29;61.53;97948.69;4946075;28;20324;-77
2022/07/12 03:39:19;;;;;;;3.90;3.17;;;;;;;17.28;61.63;97944.47;4928011;28;20291;-77
2022/07/12 03:41:44;;;;;;;4.05;3.10;;;;;;;17.30;61.68;97957.38;4944762;28;20733;-77
2022/07/12 03:44:10;;;;;;;3.20;2.88;;;;;;;17.29;61.85;97946.06;4923043;28;20637;-77
2022/07/12 03:46:35;;;;;;;3.40;2.92;;;;;;;17.26;62.19;97953.69;4927622;28;20203;-77
2022/07/12 03:49:01;;;;;;;3.70;3.30;;;;;;;17.25;61.46;97955.53;4960568;28;20180;-77
2022/07/12 03:51:27;;;;;;;3.58;3.22;;;;;;;17.24;61.74;97953.97;4960768;28;20238;-77
2022/07/12 03:53:52;;;;;;;4.25;3.30;;;;;;;17.21;61.85;97949.25;4944022;28;20261;-77
2022/07/12 03:59:02;;;;;;;3.92;3.53;;;;;;;17.10;61.71;97950.31;4944256;28;20192;-77
2022/07/12 04:01:28;;;;;;;5.03;3.88;;;;;;;17.13;61.55;97957.69;4944068;28;20293;-77
2022/07/12 04:03:55;;;;;;;5.45;4.40;;;;;;;17.06;61.84;97954.53;4944188;28;20479;-76
2022/07/12 04:06:21;;;;;;;5.18;4.03;;;;;;;17.12;61.69;97950.81;4944609;28;20293;-77
2022/07/12 04:08:46;;;;;;;4.90;4.40;;;;;;;17.16;61.56;97959.78;4943597;28;20323;-77
2022/07/12 04:11:11;;;;;;;5.00;3.75;;;;;;;17.10;61.72;97947.69;4944432;28;20194;-77
2022/07/12 04:13:37;;;;;;;5.05;4.30;;;;;;;17.10;61.38;97952.94;4944126;28;20211;-77
2022/07/12 04:16:03;;;;;;;5.22;4.00;;;;;;;17.15;61.51;97948.47;4960482;28;20204;-77
2022/07/12 04:18:29;;;;;;;5.35;3.63;;;;;;;17.21;61.93;97949.25;4944007;28;20233;-77
2022/07/12 04:20:54;;;;;;;3.92;2.75;;;;;;;17.29;61.95;97948.69;4928393;28;20220;-77
2022/07/12 04:23:20;;;;;;;3.50;3.15;;;;;;;17.36;61.93;97936.03;4943946;28;20284;-77
2022/07/12 04:25:45;;;;;;;3.45;2.78;;;;;;;17.53;61.52;97955.94;4943711;28;20681;-77
2022/07/12 04:28:10;;;;;;;4.10;3.28;;;;;;;17.66;60.51;97955.38;4943453;28;20761;-77
2022/07/12 04:30:36;;;;;;;3.88;3.42;;;;;;;17.76;59.90;97950.03;4945789;28;20661;-77
2022/07/12 04:33:01;;;;;;;4.63;3.17;;;;;;;17.79;59.90;97948.72;4927976;28;20349;-77
2022/07/12 04:35:26;;;;;;;5.38;3.90;;;;;;;17.88;59.71;97956.88;4946717;28;20176;-76
2022/07/12 04:37:52;;;;;;;5.80;3.17;;;;;;;17.83;59.60;97960.28;4931303;28;20663;-76
2022/07/12 04:40:17;;;;;;;4.32;3.30;;;;;;;17.86;59.25;97956.34;4946890;28;20248;-77
2022/07/12 04:42:42;;;;;;;3.47;2.88;;;;;;;17.85;59.71;97958.16;4947622;28;20195;-76
2022/07/12 04:45:08;;;;;;;3.13;2.80;;;;;;;17.90;59.79;97954.75;4916911;28;20207;-77
2022/07/12 04:47:36;;;;;;;3.95;3.13;;;;;;;17.85;60.48;97954.75;4947166;28;20309;-76
2022/07/12 04:50:08;;;;;;;3.28;2.38;;;;;;;17.85;60.64;97957.38;4947249;28;20265;-76
2022/07/12 04:52:34;;;;;;;3.63;2.78;;;;;;;18.06;60.78;97961.50;4963350;28;20353;-77
2022/07/12 04:55:00;;;;;;;3.25;2.95;;;;;;;18.18;61.21;97961.19;4947072;28;20196;-76
2022/07/12 04:57:26;;;;;;;4.93;3.67;;;;;;;18.26;61.11;97944.75;4946853;28;20169;-76
2022/07/12 04:59:51;;;;;;;3.53;3.22;;;;;;;18.38;60.84;97956.81;4946835;28;20212;-76
2022/07/12 05:02:16;;;;;;;3.83;3.35;;;;;;;18.42;60.75;97960.44;4946246;28;20108;-77
2022/07/12 05:04:42;;;;;;;3.67;3.28;;;;;;;18.45;60.81;97955.41;4962793;28;20208;-76
2022/07/12 05:07:07;;;;;;;3.38;3.05;;;;;;;18.39;61.36;97953.91;4962406;28;20691;-76
2022/07/12 05:09:32;;;;;;;4.25;3.33;;;;;;;18.45;60.56;97960.69;4947819;28;20204;-76
2022/07/12 05:11:58;;;;;;;3.10;2.80;;;;;;;18.52;59.80;97961.19;4945931;28;20191;-76
2022/07/12 05:14:23;;;;;;;3.53;3.00;;;;;;;18.61;59.87;97969.28;4946168;28;20219;-76
2022/07/12 05:16:49;;;;;;;3.42;2.88;;;;;;;18.63;59.48;97967.16;4957829;28;20211;-76
2022/07/12 05:19:15;;;;;;;3.00;2.70;;;;;;;18.68;59.99;97963.69;4946945;28;20187;-76
2022/07/12 05:21:42;;;;;;;4.25;2.85;;;;;;;18.70;59.77;97967.59;4945993;28;20192;-76
2022/07/12 05:24:07;;;;;;;4.40;3.08;;;;;;;18.61;59.88;97969.28;4962037;28;20242;-76
2022/07/12 05:26:33;;;;;;;3.13;2.60;;;;;;;18.71;59.76;97969.19;4945304;28;20207;-76
2022/07/12 05:28:58;;;;;;;4.18;2.58;;;;;;;18.85;59.75;97969.34;4945965;28;20169;-76
2022/07/12 05:31:24;;;;;;;3.30;2.45;;;;;;;19.02;59.42;97978.69;4943488;28;20627;-76
2022/07/12 05:33:49;;;;;;;2.63;2.42;;;;;;;19.03;59.44;97985.53;4927734;28;20473;-76
2022/07/12 05:36:15;;;;;;;4.25;3.17;;;;;;;19.16;59.10;97982.25;4960677;28;20712;-76
2022/07/12 05:38:40;;;;;;;2.45;2.25;;;;;;;19.22;58.81;97983.75;4946823;28;20157;-76
2022/07/12 05:41:06;;;;;;;3.03;2.72;;;;;;;19.32;58.71;97995.28;4945199;28;20206;-76
2022/07/12 05:43:31;;;;;;;2.90;2.60;;;;;;;19.38;58.67;97986.22;4942117;28;20247;-76
2022/07/12 05:45:56;;;;;;;3.20;2.90;;;;;;;19.38;58.99;97997.59;4970678;28;20379;-76
2022/07/12 05:48:22;;;;;;;3.80;2.95;;;;;;;19.50;58.44;97999.84;4946922;28;20350;-76
2022/07/12 05:50:47;;;;;;;2.83;2.50;;;;;;;19.66;58.22;97987.22;4948043;28;20202;-76
2022/07/12 05:53:22;;;;;;;2.45;2.25;;;;;;;19.90;57.94;97992.50;4961963;28;20522;-76
2022/07/12 05:55:51;;;;;;;2.03;1.80;;;;;;;20.09;57.94;97995.16;4965131;28;20825;-76
2022/07/12 05:58:17;;;;;;;1.77;1.63;;;;;;;20.29;57.55;97996.72;4925033;28;20383;-76
2022/07/12 06:00:43;;;;;;;2.33;2.00;;;;;;;20.56;57.36;98003.16;4944584;28;20642;-76
2022/07/12 06:03:08;;;;;;;2.03;1.88;;;;;;;20.72;56.98;98009.06;4929867;28;20176;-76
2022/07/12 06:05:34;;;;;;;2.10;1.75;;;;;;;20.86;56.49;98012.50;4947625;28;20264;-76
2022/07/12 06:07:59;;;;;;;2.08;1.90;;;;;;;20.97;55.73;97997.22;4961608;28;20193;-76
2022/07/12 06:10:25;;;;;;;2.15;1.30;;;;;;;21.02;55.93;98009.59;4962250;28;20268;-76
2022/07/12 06:12:50;;;;;;;2.80;1.90;;;;;;;21.19;55.74;98012.47;4929894;28;20246;-76
2022/07/12 06:15:15;;;;;;;1.55;1.45;;;;;;;21.28;55.04;98017.84;4945969;28;20625;-76
2022/07/12 06:17:41;;;;;;;2.22;1.90;;;;;;;21.31;55.07;98023.34;4961903;28;20201;-76
2022/07/12 06:20:07;;;;;;;1.60;1.50;;;;;;;21.40;54.82;98030.63;4929673;28;20254;-76
2022/07/12 06:22:32;;;;;;;1.83;1.70;;;;;;;21.61;54.45;98039.00;4947780;28;20211;-76
2022/07/12 06:24:57;;;;;;;1.25;1.15;;;;;;;21.68;53.98;98037.53;4961814;28;20271;-76
2022/07/12 06:27:23;;;;;;;1.42;1.23;;;;;;;21.61;54.02;98039.00;4945514;28;20191;-75
2022/07/12 06:29:48;;;;;;;0.98;0.95;;;;;;;21.67;53.89;98040.47;4978326;28;20165;-77
2022/07/12 06:32:15;;;;;;;1.73;1.20;;;;;;;21.89;54.00;98043.19;4978236;28;20285;-77
2022/07/12 06:34:41;;;;;;;1.00;1.00;;;;;;;22.08;53.68;98050.25;4929355;28;20162;-75
2022/07/12 06:37:08;;;;;;;1.13;1.02;;;;;;;22.25;52.58;98050.38;4929009;28;20192;-76
2022/07/12 06:39:34;;;;;;;1.27;1.20;;;;;;;22.55;52.47;98050.81;4952191;28;20174;-76
2022/07/12 06:42:03;;;;;;;1.30;1.20;;;;;;;22.62;51.65;98053.06;4940410;28;20667;-76
2022/07/12 06:44:29;;;;;;;1.10;0.98;;;;;;;22.94;51.35;98057.31;4937464;28;20161;-76
2022/07/12 06:46:55;;;;;;;1.73;1.38;;;;;;;23.05;50.76;98062.38;4928139;28;20637;-76
2022/07/12 06:49:20;;;;;;;1.83;1.20;;;;;;;23.09;50.48;98055.41;4972253;28;20203;-76
2022/07/12 06:51:45;;;;;;;1.15;1.05;;;;;;;22.91;50.17;98060.59;4944003;28;20971;-79
2022/07/12 06:54:11;;;;;;;1.20;1.10;;;;;;;23.13;49.74;98061.66;4943963;28;20195;-75
2022/07/12 06:56:36;;;;;;;1.17;1.05;;;;;;;23.33;49.85;98058.47;4941893;28;20196;-75
2022/07/12 06:59:02;;;;;;;1.05;0.85;;;;;;;23.69;48.65;98054.84;4940496;28;20205;-76
2022/07/12 07:01:27;;;;;;;1.30;0.98;;;;;;;24.16;48.07;98053.56;4940987;28;20170;-76
2022/07/12 07:03:52;;;;;;;0.80;0.80;;;;;;;24.22;47.49;98057.66;4954380;28;20274;-75
2022/07/12 07:06:18;;;;;;;2.95;0.90;;;;;;;24.38;47.57;98056.06;4940788;28;20203;-76
2022/07/12 07:08:44;;;;;;;1.13;1.02;;;;;;;24.79;45.82;98049.50;4943501;28;20192;-76
2022/07/12 07:11:09;;;;;;;0.88;0.80;;;;;;;24.66;44.82;98053.13;4944777;28;20173;-77
2022/07/12 07:13:35;;;;;;;0.70;0.70;;;;;;;24.48;45.22;98049.66;4943083;28;20657;-76
2022/07/12 07:16:00;;;;;;;0.70;0.70;;;;;;;24.47;44.37;98051.56;4960197;28;20169;-76
2022/07/12 07:18:26;;;;;;;0.80;0.80;;;;;;;24.54;44.89;98050.28;4945574;28;20188;-76
2022/07/12 07:20:51;;;;;;;0.75;0.75;;;;;;;24.70;45.12;98054.06;4973179;28;20625;-76
2022/07/12 07:23:17;;;;;;;0.65;0.65;;;;;;;24.71;44.06;98050.31;4935782;28;20169;-76
2022/07/12 07:25:44;;;;;;;0.60;0.60;;;;;;;25.33;43.30;98053.63;4926665;28;20683;-77
2022/07/12 07:28:09;;;;;;;1.08;1.08;;;;;;;25.60;43.44;98055.84;4925972;28;20194;-77
2022/07/12 07:30:53;;;;;;;1.50;1.10;;;;;;;25.93;43.23;98057.88;4969283;28;20275;-75
2022/07/12 07:33:23;;;;;;;1.05;0.88;;;;;;;25.56;42.44;98059.47;4941844;28;20191;-76
2022/07/12 07:35:49;;;;;;;0.80;0.80;;;;;;;26.24;41.82;98063.97;4950357;28;20188;-76
2022/07/12 07:38:16;;;;;;;0.50;0.50;;;;;;;26.29;39.14;98059.22;4943513;28;20272;-77
2022/07/12 07:40:41;;;;;;;0.70;0.70;;;;;;;26.59;39.73;98061.00;4967932;28;20267;-77
2022/07/12 07:43:07;;;;;;;0.98;0.90;;;;;;;26.83;40.32;98068.34;4943704;28;20602;-77
2022/07/12 07:45:32;;;;;;;0.95;0.80;;;;;;;26.61;39.74;98072.91;4943514;28;20166;-76
2022/07/12 07:47:57;;;;;;;0.75;0.75;;;;;;;26.87;40.17;98074.59;4940681;28;20216;-76
2022/07/12 07:50:23;;;;;;;0.80;0.80;;;;;;;26.92;39.39;98079.72;4943201;28;20177;-77
2022/07/12 07:52:49;;;;;;;0.55;0.55;;;;;;;26.39;39.59;98078.59;4927494;28;20318;-76
2022/07/12 07:55:15;;;;;;;0.60;0.60;;;;;;;26.63;38.63;98076.09;4960920;28;20313;-76
2022/07/12 07:57:41;;;;;;;0.70;0.70;;;;;;;26.61;39.01;98077.50;4916874;28;20731;-76
2022/07/12 08:00:07;;;;;;;0.70;0.70;;;;;;;26.90;38.17;98076.63;4959545;28;20239;-77
2022/07/12 08:02:32;;;;;;;0.88;0.80;;;;;;;26.59;38.24;98069.78;4943415;28;20211;-76
2022/07/12 08:04:57;;;;;;;0.80;0.80;;;;;;;26.72;38.44;98062.66;4945183;28;20432;-76
2022/07/12 08:07:23;;;;;;;0.70;0.70;;;;;;;26.90;37.88;98060.56;4927602;28;20307;-76
2022/07/12 08:09:48;;;;;;;0.60;0.60;;;;;;;27.39;36.97;98054.56;4945679;28;20536;-76
2022/07/12 08:12:14;;;;;;;0.57;0.57;;;;;;;27.44;36.86;98059.69;4947193;28;20191;-77
2022/07/12 08:14:39;;;;;;;0.80;0.80;;;;;;;27.75;36.68;98058.34;4947239;28;20336;-76
2022/07/12 08:17:05;;;;;;;0.80;0.50;;;;;;;27.67;36.91;98062.69;4916365;28;20173;-77
2022/07/12 08:19:30;;;;;;;0.70;0.70;;;;;;;27.89;35.96;98060.69;4948141;28;20369;-76
2022/07/12 08:21:55;;;;;;;0.50;0.50;;;;;;;27.93;35.34;98061.59;4947868;28;20192;-76
2022/07/12 08:24:21;;;;;;;0.70;0.70;;;;;;;28.25;35.99;98051.03;4946665;28;20323;-76
2022/07/12 08:26:46;;;;;;;0.80;0.80;;;;;;;28.72;35.13;98051.22;4964009;28;20219;-76
2022/07/12 08:29:11;;;;;;;0.90;0.90;;;;;;;28.71;34.89;98055.00;4967510;28;20429;-77
2022/07/12 08:31:37;;;;;;;1.10;1.10;;;;;;;28.92;35.12;98060.13;4949810;28;20172;-76
2022/07/12 08:34:02;;;;;;;1.02;0.93;;;;;;;29.39;34.68;98066.69;4947366;28;20258;-76
2022/07/12 08:36:28;;;;;;;0.90;0.90;;;;;;;29.44;34.39;98073.69;4932634;28;20696;-76
2022/07/12 08:38:53;;;;;;;0.82;0.82;;;;;;;28.83;34.47;98072.16;4931135;28;20339;-77
2022/07/12 08:41:18;;;;;;;0.80;0.80;;;;;;;28.88;34.84;98077.28;4963761;28;20199;-76
2022/07/12 08:43:44;;;;;;;0.82;0.82;;;;;;;28.57;34.97;98084.88;4945013;28;20298;-76
2022/07/12 08:46:12;;;;;;;0.85;0.85;;;;;;;27.52;36.65;98082.09;4946482;28;20189;-76
2022/07/12 08:48:38;;;;;;;1.10;0.98;;;;;;;27.84;36.12;98083.88;4956294;28;20201;-76
2022/07/12 08:51:12;;;;;;;1.00;1.00;;;;;;;27.82;35.98;98088.78;4947403;28;20206;-76
2022/07/12 08:53:38;;;;;;;0.73;0.73;;;;;;;28.15;35.61;98084.41;4946931;28;20794;-76
2022/07/12 08:56:05;;;;;;;1.45;1.05;;;;;;;28.23;36.84;98082.75;4930121;28;20430;-76
2022/07/12 08:58:30;;;;;;;1.10;0.90;;;;;;;28.73;35.75;98084.16;4956270;28;20282;-76
2022/07/12 09:00:55;;;;;;;0.98;0.80;;;;;;;28.70;34.80;98090.97;4914080;28;20809;-76
2022/07/12 09:03:21;;;;;;;0.75;0.75;;;;;;;28.57;35.11;98089.47;4966532;28;20273;-76
2022/07/12 09:05:52;;;;;;;0.95;0.95;;;;;;;28.61;35.69;98076.16;4930491;28;20642;-76
2022/07/12 09:08:18;;;;;;;1.23;0.93;;;;;;;28.92;34.54;98073.53;4946355;28;20256;-76
2022/07/12 09:10:50;;;;;;;0.90;0.90;;;;;;;28.13;35.02;98089.34;4947063;28;20177;-77
2022/07/12 09:13:16;;;;;;;1.00;1.00;;;;;;;28.62;35.04;98080.38;4956967;28;20648;-75
2022/07/12 09:15:41;;;;;;;0.60;0.60;;;;;;;28.90;34.00;98078.47;4962870;28;20190;-76
2022/07/12 09:18:14;;;;;;;0.70;0.70;;;;;;;29.28;33.18;98071.00;4947789;28;20169;-76
2022/07/12 09:20:41;;;;;;;0.70;0.70;;;;;;;29.59;31.53;98077.50;4941563;28;20754;-75
2022/07/12 09:23:11;;;;;;;0.98;0.90;;;;;;;29.49;32.52;98062.69;4923576;28;20228;-76
2022/07/12 09:25:37;;;;;;;0.80;0.80;;;;;;;29.72;32.70;98064.75;4962536;28;20179;-75
2022/07/12 09:28:05;;;;;;;0.82;0.82;;;;;;;29.91;33.22;98066.75;4945500;28;20289;-75
2022/07/12 09:30:31;;;;;;;1.83;1.00;;;;;;;29.69;32.42;98064.31;4962621;28;20263;-76
2022/07/12 09:36:07;;;;;;;2.17;1.10;;;;;;;30.09;32.62;98059.81;4945596;28;20697;-76
2022/07/12 09:39:01;;;;;;;1.10;0.90;;;;;;;30.05;32.89;98067.81;4947313;28;20270;-75
2022/07/12 09:41:27;;;;;;;1.00;1.00;;;;;;;30.47;32.34;98066.38;4964611;28;20708;-76
2022/07/12 09:43:53;;;;;;;0.70;0.70;;;;;;;30.66;31.69;98062.09;4945629;28;20189;-75
2022/07/12 09:46:19;;;;;;;0.80;0.80;;;;;;;30.44;31.61;98051.72;4912107;28;20187;-75
2022/07/12 09:48:46;;;;;;;0.80;0.80;;;;;;;30.08;32.59;98052.13;4962797;28;20752;-75
2022/07/12 09:51:16;;;;;;;0.93;0.93;;;;;;;30.25;31.91;98046.34;4946810;28;20256;-75
2022/07/12 09:53:47;;;;;;;1.13;1.00;;;;;;;30.77;30.94;98047.72;4918660;28;20280;-75
2022/07/12 09:56:15;;;;;;;0.73;0.73;;;;;;;30.77;32.08;98058.47;4946500;28;20184;-76
2022/07/12 09:58:47;;;;;;;0.77;0.77;;;;;;;30.35;31.95;98059.25;4955472;28;20176;-76
2022/07/12 10:01:14;;;;;;;1.88;1.40;;;;;;;30.59;31.52;98062.78;4946460;28;20187;-76
2022/07/12 10:03:40;;;;;;;2.05;0.80;;;;;;;30.57;31.58;98065.00;4930131;28;20286;-76
2022/07/12 10:06:06;;;;;;;0.80;0.80;;;;;;;30.69;31.12;98062.19;4946018;28;20160;-75
2022/07/12 10:08:31;;;;;;;0.98;0.98;;;;;;;31.01;30.06;98056.63;4962960;28;20307;-75
2022/07/12 10:10:57;;;;;;;0.60;0.60;;;;;;;30.89;30.83;98064.84;4946500;28;20270;-76
2022/07/12 10:13:23;;;;;;;1.88;1.00;;;;;;;30.93;30.35;98061.13;4929916;28;20259;-75
2022/07/12 10:15:49;;;;;;;0.70;0.70;;;;;;;30.56;31.05;98058.09;4929954;28;20168;-76
2022/07/12 10:18:19;;;;;;;0.80;0.80;;;;;;;30.27;31.31;98062.88;4961929;28;20634;-76
2022/07/12 10:20:47;;;;;;;1.02;0.65;;;;;;;29.87;31.29;98062.06;4946240;28;20232;-76
2022/07/12 10:23:36;;;;;;;0.73;0.73;;;;;;;30.34;32.04;98052.28;4929810;28;20296;-75
2022/07/12 10:26:25;;;;;;;1.02;0.90;;;;;;;29.65;31.51;98051.94;4945739;28;20625;-75
2022/07/12 10:29:04;;;;;;;0.63;0.63;;;;;;;30.78;30.11;98059.28;4910905;28;20249;-76
2022/07/12 10:31:34;;;;;;;0.80;0.80;;;;;;;31.31;30.25;98053.28;4962283;28;20286;-75
2022/07/12 10:34:08;;;;;;;0.80;0.80;;;;;;;31.63;29.32;98051.06;4929600;28;20169;-75
2022/07/12 10:36:56;;;;;;;0.77;0.77;;;;;;;31.62;29.50;98059.50;4948797;28;20176;-76
2022/07/12 10:39:22;;;;;;;0.80;0.80;;;;;;;32.18;28.89;98055.28;4929672;28;20196;-75
2022/07/12 10:42:15;;;;;;;1.00;1.00;;;;;;;32.11;29.35;98058.69;4945939;28;20176;-76
2022/07/12 10:44:44;;;;;;;0.98;0.80;;;;;;;32.64;28.19;98065.84;4923447;28;20683;-75
2022/07/12 10:47:12;;;;;;;0.80;0.80;;;;;;;32.21;27.61;98060.72;4945376;28;20243;-75
2022/07/12 10:49:45;;;;;;;0.63;0.60;;;;;;;31.78;27.67;98059.38;4961632;28;20271;-75
2022/07/12 10:52:11;;;;;;;0.60;0.60;;;;;;;31.89;26.67;98065.66;4945651;28;20187;-75
2022/07/12 10:54:39;;;;;;;0.63;0.63;;;;;;;31.75;26.90;98066.25;4945459;28;20680;-75
2022/07/12 10:57:05;;;;;;;0.60;0.60;;;;;;;31.80;27.25;98060.56;4945174;28;20195;-75
2022/07/12 10:59:33;;;;;;;0.90;0.90;;;;;;;32.02;27.07;98061.63;4945610;28;20645;-76
2022/07/12 11:02:00;;;;;;;0.70;0.70;;;;;;;32.03;26.67;98070.47;4945414;28;20642;-75
2022/07/12 11:04:25;;;;;;;0.73;0.73;;;;;;;31.61;26.96;98066.06;4945805;28;20286;-76
2022/07/12 11:06:55;;;;;;;0.90;0.90;;;;;;;31.94;26.56;98065.34;4961866;28;20200;-75
2022/07/12 11:09:21;;;;;;;0.47;0.47;;;;;;;31.67;27.15;98060.00;4945460;28;20208;-76
2022/07/12 11:11:50;;;;;;;0.75;0.60;;;;;;;31.98;27.53;98073.47;4945389;28;20187;-75
2022/07/12 11:14:30;;;;;;;0.82;0.82;;;;;;;31.95;27.14;98066.91;4961457;28;20429;-75
2022/07/12 11:16:57;;;;;;;0.80;0.80;;;;;;;31.90;27.17;98062.63;4942703;28;20274;-75
2022/07/12 11:19:24;;;;;;;2.58;1.27;;;;;;;32.19;26.64;98056.84;4945243;28;20278;-75
2022/07/12 11:21:55;;;;;;;0.80;0.80;;;;;;;31.99;27.69;98053.50;4945240;28;20199;-75
2022/07/12 11:24:29;;;;;;;0.90;0.90;;;;;;;31.59;28.30;98055.66;4960856;28;20769;-75
2022/07/12 11:26:55;;;;;;;1.10;0.77;;;;;;;31.74;28.74;98065.47;4961423;28;20260;-75
2022/07/12 11:29:20;;;;;;;1.10;1.00;;;;;;;31.48;28.46;98074.31;4914229;28;20313;-75
2022/07/12 11:31:47;;;;;;;0.82;0.82;;;;;;;31.83;28.02;98056.38;4945067;28;20196;-75
2022/07/12 11:34:22;;;;;;;0.90;0.90;;;;;;;31.83;27.79;98057.13;4944889;28;20195;-75
2022/07/12 11:36:54;;;;;;;1.20;0.80;;;;;;;31.66;27.21;98057.66;4944458;28;20199;-75